createdAt,value
2019-05-11T00:00:21.488Z,13.26
2019-05-11T00:02:51.526Z,13.28
2019-05-11T00:05:21.579Z,13.28
2019-05-11T00:07:51.599Z,13.25
2019-05-11T00:10:23.608Z,13.25
2019-05-11T00:12:53.482Z,13.22
2019-05-11T00:15:23.536Z,13.23
2019-05-11T00:17:53.558Z,13.24
2019-05-11T00:20:23.611Z,13.25
2019-05-11T00:22:53.677Z,13.26
2019-05-11T00:25:23.680Z,13.24
2019-05-11T00:27:53.754Z,13.19
2019-05-11T00:30:24.788Z,13.15
2019-05-11T00:32:54.814Z,13.12
2019-05-11T00:35:24.927Z,13.11
2019-05-11T00:37:54.960Z,13.07
2019-05-11T00:40:25.984Z,13.07
2019-05-11T00:42:56.013Z,13.06
2019-05-11T00:45:26.057Z,13.02
2019-05-11T00:47:56.089Z,13.00
2019-05-11T00:50:38.683Z,12.91
2019-05-11T00:52:57.840Z,12.88
2019-05-11T00:55:27.898Z,12.83
2019-05-11T00:57:57.950Z,12.80
2019-05-11T01:00:28.006Z,12.78
2019-05-11T01:02:58.029Z,12.77
2019-05-11T01:05:28.142Z,12.76
2019-05-11T01:07:58.153Z,12.74
2019-05-11T01:10:41.022Z,12.74
2019-05-11T01:13:00.051Z,12.73
2019-05-11T01:15:30.173Z,12.70
2019-05-11T01:18:00.218Z,12.68
2019-05-11T01:20:30.240Z,12.67
2019-05-11T01:23:00.305Z,12.65
2019-05-11T01:25:30.320Z,12.63
2019-05-11T01:28:00.502Z,12.63
2019-05-11T01:30:30.547Z,12.64
2019-05-11T01:33:00.569Z,12.65
2019-05-11T01:35:30.615Z,12.66
2019-05-11T01:38:00.637Z,12.65
2019-05-11T01:40:31.649Z,12.63
2019-05-11T01:43:01.698Z,12.58
2019-05-11T01:45:31.730Z,12.51
2019-05-11T01:48:01.739Z,12.46
2019-05-11T01:50:32.864Z,12.40
2019-05-11T01:53:02.903Z,12.33
2019-05-11T01:55:32.945Z,12.28
2019-05-11T01:58:02.976Z,12.25
2019-05-11T02:00:33.001Z,12.20
2019-05-11T02:03:03.040Z,12.15
2019-05-11T02:05:33.057Z,12.11
2019-05-11T02:08:03.201Z,12.06
2019-05-11T02:10:33.225Z,11.98
2019-05-11T02:13:03.284Z,11.92
2019-05-11T02:15:33.298Z,11.88
2019-05-11T02:18:03.335Z,11.83
2019-05-11T02:20:33.380Z,11.81
2019-05-11T02:23:03.414Z,11.82
2019-05-11T02:25:33.435Z,11.83
2019-05-11T02:28:03.538Z,11.81
2019-05-11T02:30:33.610Z,11.76
2019-05-11T02:33:03.634Z,11.74
2019-05-11T02:35:33.664Z,11.72
2019-05-11T02:38:03.682Z,11.73
2019-05-11T02:40:33.713Z,11.73
2019-05-11T02:43:03.757Z,11.71
2019-05-11T02:45:41.300Z,11.69
2019-05-11T02:48:11.660Z,11.63
2019-05-11T02:50:41.687Z,11.60
2019-05-11T02:53:11.731Z,11.55
2019-05-11T02:55:41.776Z,11.50
2019-05-11T02:58:11.792Z,11.48
2019-05-11T03:00:42.810Z,11.45
2019-05-11T03:03:12.890Z,11.43
2019-05-11T03:05:42.907Z,11.39
2019-05-11T03:08:12.917Z,11.34
2019-05-11T03:10:42.972Z,11.35
2019-05-11T03:13:13.002Z,11.34
2019-05-11T03:15:43.057Z,11.34
2019-05-11T03:18:13.089Z,11.32
2019-05-11T03:20:43.141Z,11.30
2019-05-11T03:23:13.149Z,11.29
2019-05-11T03:25:43.188Z,11.28
2019-05-11T03:28:13.233Z,11.28
2019-05-11T03:30:43.306Z,11.26
2019-05-11T03:33:13.326Z,11.22
2019-05-11T03:35:43.381Z,11.22
2019-05-11T03:38:13.399Z,11.22
2019-05-11T03:40:43.426Z,11.23
2019-05-11T03:43:13.486Z,11.24
2019-05-11T03:45:43.507Z,11.24
2019-05-11T03:48:13.568Z,11.24
2019-05-11T03:50:43.719Z,11.24
2019-05-11T03:53:13.817Z,11.26
2019-05-11T03:55:43.846Z,11.28
2019-05-11T03:58:13.872Z,11.27
2019-05-11T04:00:43.887Z,11.28
2019-05-11T04:03:13.943Z,11.27
2019-05-11T04:05:43.985Z,11.26
2019-05-11T04:08:14.031Z,11.24
2019-05-11T04:10:45.032Z,11.22
2019-05-11T04:13:15.093Z,11.18
2019-05-11T04:15:45.145Z,11.14
2019-05-11T04:18:15.202Z,11.10
2019-05-11T04:20:45.204Z,11.08
2019-05-11T04:23:15.260Z,11.06
2019-05-11T04:25:45.279Z,11.03
2019-05-11T04:28:15.315Z,11.04
2019-05-11T04:30:45.360Z,11.04
2019-05-11T04:33:15.385Z,11.03
2019-05-11T04:35:45.437Z,11.01
2019-05-11T04:38:15.465Z,11.03
2019-05-11T04:40:45.518Z,11.05
2019-05-11T04:43:15.550Z,11.04
2019-05-11T04:45:45.588Z,11.04
2019-05-11T04:48:15.594Z,11.01
2019-05-11T04:50:45.646Z,11.02
2019-05-11T04:53:15.675Z,11.04
2019-05-11T04:55:45.713Z,11.04
2019-05-11T04:58:15.776Z,11.08
2019-05-11T05:00:45.795Z,11.05
2019-05-11T05:03:15.846Z,11.06
2019-05-11T05:05:45.857Z,11.04
2019-05-11T05:08:15.908Z,11.07
2019-05-11T05:10:45.919Z,11.05
2019-05-11T05:13:15.950Z,11.03
2019-05-11T05:15:46.013Z,11.01
2019-05-11T05:18:16.063Z,11.01
2019-05-11T05:20:47.766Z,11.03
2019-05-11T05:23:17.811Z,11.05
2019-05-11T05:25:47.904Z,11.04
2019-05-11T05:28:17.956Z,11.04
2019-05-11T05:30:47.993Z,11.04
2019-05-11T05:33:18.016Z,11.04
2019-05-11T05:35:48.073Z,11.09
2019-05-11T05:38:18.089Z,11.20
2019-05-11T05:40:48.123Z,11.30
2019-05-11T05:43:26.008Z,11.39
2019-05-11T05:45:49.902Z,11.48
2019-05-11T05:48:19.984Z,11.63
2019-05-11T05:50:50.011Z,11.79
2019-05-11T05:53:20.057Z,11.94
2019-05-11T05:55:50.079Z,12.07
2019-05-11T05:58:20.113Z,12.22
2019-05-11T06:00:50.168Z,12.29
2019-05-11T06:03:20.221Z,12.39
2019-05-11T06:05:50.269Z,12.45
2019-05-11T06:08:20.289Z,12.50
2019-05-11T06:10:50.389Z,12.57
2019-05-11T06:13:21.396Z,12.60
2019-05-11T06:15:52.419Z,12.67
2019-05-11T06:18:22.472Z,12.74
2019-05-11T06:20:52.483Z,12.85
2019-05-11T06:23:22.554Z,13.00
2019-05-11T06:25:52.594Z,13.14
2019-05-11T06:28:22.607Z,13.24
2019-05-11T06:30:52.760Z,13.40
2019-05-11T06:33:22.797Z,13.52
2019-05-11T06:35:52.845Z,13.60
2019-05-11T06:38:22.882Z,13.71
2019-05-11T06:40:52.932Z,13.78
2019-05-11T06:43:22.941Z,13.86
2019-05-11T06:45:52.989Z,13.97
2019-05-11T06:48:23.021Z,14.06
2019-05-11T06:50:53.053Z,14.16
2019-05-11T06:53:23.078Z,14.29
2019-05-11T06:55:53.152Z,14.40
2019-05-11T06:58:23.188Z,14.54
2019-05-11T07:00:53.246Z,14.64
2019-05-11T07:03:23.265Z,14.76
2019-05-11T07:05:55.828Z,14.91
2019-05-11T07:08:25.863Z,15.04
2019-05-11T07:10:55.895Z,15.17
2019-05-11T07:13:25.958Z,15.31
2019-05-11T07:15:56.027Z,15.40
2019-05-11T07:18:26.068Z,15.49
2019-05-11T07:20:56.105Z,15.63
2019-05-11T07:23:26.137Z,15.66
2019-05-11T07:26:00.020Z,15.70
2019-05-11T07:28:27.929Z,15.74
2019-05-11T07:30:57.961Z,15.83
2019-05-11T07:33:28.679Z,15.98
2019-05-11T07:35:58.814Z,16.01
2019-05-11T07:38:28.865Z,15.98
2019-05-11T07:40:58.897Z,16.05
2019-05-11T07:43:29.022Z,16.05
2019-05-11T07:45:59.054Z,15.97
2019-05-11T07:48:29.102Z,16.02
2019-05-11T07:50:59.138Z,16.16
2019-05-11T07:53:29.188Z,16.35
2019-05-11T07:55:59.247Z,16.39
2019-05-11T07:58:29.285Z,16.39
2019-05-11T08:01:00.309Z,16.44
2019-05-11T08:03:30.335Z,16.43
2019-05-11T08:06:02.790Z,16.51
2019-05-11T08:08:32.107Z,16.60
2019-05-11T08:11:02.161Z,16.52
2019-05-11T08:13:32.215Z,16.52
2019-05-11T08:16:02.397Z,16.60
2019-05-11T08:18:32.494Z,16.86
2019-05-11T08:21:02.532Z,16.86
2019-05-11T08:23:32.581Z,16.94
2019-05-11T08:26:02.785Z,16.85
2019-05-11T08:28:32.861Z,16.89
2019-05-11T08:31:02.878Z,16.94
2019-05-11T08:33:32.917Z,17.04
2019-05-11T08:36:02.948Z,17.08
2019-05-11T08:38:32.993Z,17.06
2019-05-11T08:41:03.011Z,17.03
2019-05-11T08:43:33.050Z,17.01
2019-05-11T08:46:03.178Z,16.95
2019-05-11T08:48:33.192Z,16.95
2019-05-11T08:51:03.254Z,16.77
2019-05-11T08:53:33.272Z,16.89
2019-05-11T08:56:03.326Z,17.04
2019-05-11T08:58:33.357Z,17.09
2019-05-11T09:01:03.418Z,17.04
2019-05-11T09:03:33.449Z,17.05
2019-05-11T09:06:03.506Z,16.97
2019-05-11T09:08:33.543Z,16.97
2019-05-11T09:11:03.591Z,17.00
2019-05-11T09:13:33.621Z,17.13
2019-05-11T09:16:03.704Z,17.24
2019-05-11T09:18:33.725Z,17.21
2019-05-11T09:21:03.775Z,17.28
2019-05-11T09:23:37.618Z,17.34
2019-05-11T09:26:05.535Z,17.28
2019-05-11T09:28:35.634Z,17.30
2019-05-11T09:31:08.343Z,17.44
2019-05-11T09:33:38.589Z,17.43
2019-05-11T09:36:09.873Z,17.47
2019-05-11T09:38:40.006Z,17.53
2019-05-11T09:41:12.220Z,17.64
2019-05-11T09:43:42.325Z,17.64
2019-05-11T09:46:12.358Z,17.68
2019-05-11T09:48:42.376Z,17.72
2019-05-11T09:51:12.407Z,17.83
2019-05-11T09:53:42.424Z,17.82
2019-05-11T09:56:12.456Z,17.89
2019-05-11T09:58:42.494Z,17.86
2019-05-11T10:01:12.576Z,17.89
2019-05-11T10:03:42.735Z,18.01
2019-05-11T10:06:12.752Z,18.14
2019-05-11T10:08:42.884Z,18.12
2019-05-11T10:11:12.906Z,18.14
2019-05-11T10:13:43.038Z,18.18
2019-05-11T10:16:13.838Z,18.24
2019-05-11T10:18:44.848Z,18.18
2019-05-11T10:21:14.887Z,18.02
2019-05-11T10:23:45.008Z,18.09
2019-05-11T10:26:15.044Z,18.08
2019-05-11T10:28:45.084Z,18.02
2019-05-11T10:31:15.116Z,17.93
2019-05-11T10:33:45.160Z,18.10
2019-05-11T10:36:15.183Z,18.14
2019-05-11T10:38:45.214Z,18.31
2019-05-11T10:41:15.227Z,18.40
2019-05-11T10:43:45.282Z,18.28
2019-05-11T10:46:22.236Z,18.33
2019-05-11T10:48:48.309Z,18.44
2019-05-11T10:51:18.665Z,18.73
2019-05-11T10:53:51.928Z,19.03
2019-05-11T10:56:20.428Z,19.25
2019-05-11T10:58:51.444Z,19.52
2019-05-11T11:01:21.494Z,19.37
2019-05-11T11:03:51.607Z,19.31
2019-05-11T11:06:21.625Z,19.35
2019-05-11T11:08:51.679Z,19.37
2019-05-11T11:11:21.705Z,19.40
2019-05-11T11:13:51.761Z,19.35
2019-05-11T11:16:35.568Z,19.44
2019-05-11T11:18:54.429Z,19.47
2019-05-11T11:21:24.496Z,19.30
2019-05-11T11:23:54.500Z,19.40
2019-05-11T11:26:24.533Z,19.72
2019-05-11T11:28:54.574Z,20.00
2019-05-11T11:31:28.711Z,20.27
2019-05-11T11:33:58.645Z,20.53
2019-05-11T11:36:28.740Z,20.66
2019-05-11T11:38:58.805Z,20.80
2019-05-11T11:41:30.023Z,21.05
2019-05-11T11:44:00.156Z,20.95
2019-05-11T11:46:30.259Z,20.84
2019-05-11T11:49:00.395Z,20.77
2019-05-11T11:51:30.410Z,20.82
2019-05-11T11:54:00.451Z,21.02
2019-05-11T11:56:30.522Z,21.16
2019-05-11T11:59:00.557Z,21.23
2019-05-11T12:01:30.615Z,20.93
2019-05-11T12:04:00.655Z,20.83
2019-05-11T12:06:30.684Z,20.79
2019-05-11T12:09:01.698Z,20.92
2019-05-11T12:11:32.883Z,20.89
2019-05-11T12:14:02.933Z,20.99
2019-05-11T12:16:32.966Z,21.07
2019-05-11T12:19:05.278Z,21.15
2019-05-11T12:21:34.755Z,21.33
2019-05-11T12:24:04.779Z,21.10
2019-05-11T12:26:34.817Z,21.15
2019-05-11T12:29:04.837Z,21.21
2019-05-11T12:31:34.873Z,21.48
2019-05-11T12:34:04.889Z,21.53
2019-05-11T12:36:34.930Z,21.55
2019-05-11T12:39:08.347Z,21.57
2019-05-11T12:41:38.875Z,21.26
2019-05-11T12:44:09.033Z,20.73
2019-05-11T12:46:39.626Z,20.58
2019-05-11T12:49:10.658Z,20.70
2019-05-11T12:51:40.723Z,20.96
2019-05-11T12:54:10.732Z,21.26
2019-05-11T12:56:40.813Z,21.38
2019-05-11T12:59:10.901Z,21.08
2019-05-11T13:01:40.876Z,21.03
2019-05-11T13:04:10.893Z,21.04
2019-05-11T13:06:40.954Z,20.96
2019-05-11T13:09:10.972Z,20.80
2019-05-11T13:11:41.023Z,20.76
2019-05-11T13:14:11.058Z,20.90
2019-05-11T13:16:41.116Z,21.15
2019-05-11T13:19:11.134Z,21.11
2019-05-11T13:21:41.188Z,21.15
2019-05-11T13:24:11.216Z,21.25
2019-05-11T13:26:41.262Z,21.29
2019-05-11T13:29:11.316Z,21.31
2019-05-11T13:31:41.344Z,21.35
2019-05-11T13:34:11.376Z,21.41
2019-05-11T13:36:41.438Z,21.17
2019-05-11T13:39:11.452Z,21.00
2019-05-11T13:41:41.500Z,20.82
2019-05-11T13:44:11.689Z,20.76
2019-05-11T13:46:43.379Z,20.72
2019-05-11T13:49:13.435Z,20.48
2019-05-11T13:51:44.439Z,20.61
2019-05-11T13:54:14.486Z,20.51
2019-05-11T13:56:44.524Z,20.24
2019-05-11T13:59:14.577Z,20.04
2019-05-11T14:01:44.607Z,20.09
2019-05-11T14:04:14.661Z,20.20
2019-05-11T14:06:44.679Z,20.14
2019-05-11T14:09:14.717Z,20.08
2019-05-11T14:11:45.077Z,20.06
2019-05-11T14:14:15.170Z,20.09
2019-05-11T14:16:45.217Z,20.16
2019-05-11T14:19:17.212Z,20.13
2019-05-11T14:21:48.987Z,20.29
2019-05-11T14:24:18.716Z,20.45
2019-05-11T14:26:49.006Z,20.64
2019-05-11T14:29:19.085Z,20.80
2019-05-11T14:31:49.147Z,20.82
2019-05-11T14:34:19.178Z,20.80
2019-05-11T14:36:49.238Z,20.58
2019-05-11T14:39:19.257Z,20.38
2019-05-11T14:41:49.284Z,20.45
2019-05-11T14:44:19.356Z,20.52
2019-05-11T14:46:49.421Z,20.47
2019-05-11T14:49:19.460Z,20.43
2019-05-11T14:51:49.481Z,20.41
2019-05-11T14:54:19.533Z,20.47
2019-05-11T14:56:49.558Z,20.70
2019-05-11T14:59:19.598Z,20.88
2019-05-11T15:01:50.605Z,20.84
2019-05-11T15:04:20.634Z,20.84
2019-05-11T15:06:50.702Z,20.72
2019-05-11T15:09:20.738Z,20.77
2019-05-11T15:11:52.637Z,20.82
2019-05-11T15:14:22.680Z,20.56
2019-05-11T15:16:52.720Z,20.36
2019-05-11T15:19:22.741Z,20.26
2019-05-11T15:21:52.789Z,20.28
2019-05-11T15:24:22.818Z,20.44
2019-05-11T15:26:52.850Z,20.43
2019-05-11T15:29:22.889Z,20.50
2019-05-11T15:31:52.909Z,20.50
2019-05-11T15:34:22.960Z,20.56
2019-05-11T15:36:58.151Z,20.53
2019-05-11T15:39:28.742Z,20.57
2019-05-11T15:42:09.177Z,20.63
2019-05-11T15:44:30.764Z,20.82
2019-05-11T15:47:00.817Z,20.76
2019-05-11T15:49:30.875Z,20.77
2019-05-11T15:52:00.885Z,20.71
2019-05-11T15:54:30.949Z,20.72
2019-05-11T15:57:00.977Z,20.64
2019-05-11T15:59:30.999Z,20.65
2019-05-11T16:02:01.051Z,20.48
2019-05-11T16:04:31.080Z,20.05
2019-05-11T16:07:01.116Z,19.85
2019-05-11T16:09:31.149Z,19.94
2019-05-11T16:12:01.185Z,20.01
2019-05-11T16:14:31.232Z,19.89
2019-05-11T16:17:01.262Z,19.93
2019-05-11T16:19:31.313Z,19.79
2019-05-11T16:22:02.296Z,19.71
2019-05-11T16:24:32.348Z,19.82
2019-05-11T16:27:02.373Z,19.97
2019-05-11T16:29:32.415Z,19.91
2019-05-11T16:32:02.505Z,20.04
2019-05-11T16:34:32.615Z,19.98
2019-05-11T16:37:05.356Z,19.92
2019-05-11T16:39:34.387Z,19.83
2019-05-11T16:42:04.461Z,19.76
2019-05-11T16:44:34.488Z,19.69
2019-05-11T16:47:04.558Z,19.62
2019-05-11T16:49:34.646Z,19.65
2019-05-11T16:52:04.680Z,19.60
2019-05-11T16:54:34.708Z,19.64
2019-05-11T16:57:08.430Z,19.78
2019-05-11T16:59:39.826Z,19.57
2019-05-11T17:02:09.335Z,19.42
2019-05-11T17:04:39.897Z,19.28
2019-05-11T17:07:09.992Z,19.39
2019-05-11T17:09:40.004Z,19.40
2019-05-11T17:12:10.046Z,19.44
2019-05-11T17:14:58.459Z,19.43
2019-05-11T17:17:29.613Z,19.51
2019-05-11T17:19:59.728Z,19.22
2019-05-11T17:22:29.756Z,19.15
2019-05-11T17:24:59.796Z,19.03
2019-05-11T17:27:29.801Z,18.94
2019-05-11T17:29:59.904Z,18.90
2019-05-11T17:32:29.922Z,18.88
2019-05-11T17:34:59.981Z,18.80
2019-05-11T17:37:31.096Z,18.61
2019-05-11T17:40:01.150Z,18.67
2019-05-11T17:42:31.233Z,18.72
2019-05-11T17:45:02.263Z,18.74
2019-05-11T17:47:32.369Z,18.71
2019-05-11T17:50:03.931Z,18.65
2019-05-11T17:52:34.157Z,18.61
2019-05-11T17:55:04.172Z,18.60
2019-05-11T17:57:34.259Z,18.58
2019-05-11T18:00:04.609Z,18.42
2019-05-11T18:02:35.732Z,18.42
2019-05-11T18:05:05.786Z,18.38
2019-05-11T18:07:38.318Z,18.38
2019-05-11T18:10:08.199Z,18.37
2019-05-11T18:12:39.100Z,18.33
2019-05-11T18:15:09.305Z,18.35
2019-05-11T18:17:39.362Z,18.27
2019-05-11T18:20:17.276Z,18.19
2019-05-11T18:22:41.143Z,18.15
2019-05-11T18:25:13.926Z,18.02
2019-05-11T18:27:42.903Z,17.89
2019-05-11T18:30:12.942Z,17.86
2019-05-11T18:32:42.996Z,17.79
2019-05-11T18:35:13.020Z,17.81
2019-05-11T18:37:43.055Z,17.80
2019-05-11T18:40:13.202Z,17.76
2019-05-11T18:42:43.217Z,17.72
2019-05-11T18:45:14.254Z,17.69
2019-05-11T18:47:44.271Z,17.63
2019-05-11T18:50:28.251Z,17.56
2019-05-11T18:52:46.101Z,17.51
2019-05-11T18:55:16.149Z,17.56
2019-05-11T18:57:48.719Z,17.53
2019-05-11T19:00:18.541Z,17.58
2019-05-11T19:02:49.436Z,17.52
2019-05-11T19:05:19.785Z,17.52
2019-05-11T19:07:49.789Z,17.41
2019-05-11T19:10:19.863Z,17.40
2019-05-11T19:12:49.901Z,17.44
2019-05-11T19:15:19.915Z,17.32
2019-05-11T19:17:49.959Z,17.24
2019-05-11T19:20:20.012Z,17.12
2019-05-11T19:22:50.038Z,17.10
2019-05-11T19:25:20.061Z,17.00
2019-05-11T19:27:50.716Z,16.99
2019-05-11T19:30:20.943Z,16.97
2019-05-11T19:32:51.075Z,16.90
2019-05-11T19:35:21.597Z,16.87
2019-05-11T19:37:51.724Z,16.76
2019-05-11T19:40:21.754Z,16.70
2019-05-11T19:42:55.063Z,16.66
2019-05-11T19:45:25.066Z,16.65
2019-05-11T19:47:55.103Z,16.52
2019-05-11T19:50:25.169Z,16.57
2019-05-11T19:52:55.197Z,16.56
2019-05-11T19:55:25.341Z,16.51
2019-05-11T19:57:55.432Z,16.45
2019-05-11T20:00:25.482Z,16.37
2019-05-11T20:02:55.590Z,16.34
2019-05-11T20:05:25.624Z,16.30
2019-05-11T20:07:55.674Z,16.18
2019-05-11T20:10:27.802Z,16.18
2019-05-11T20:12:58.791Z,16.19
2019-05-11T20:15:29.067Z,16.17
2019-05-11T20:17:59.122Z,16.22
2019-05-11T20:20:29.150Z,16.26
2019-05-11T20:22:59.183Z,16.32
2019-05-11T20:25:29.247Z,16.24
2019-05-11T20:27:59.258Z,16.14
2019-05-11T20:30:29.290Z,16.10
2019-05-11T20:32:59.316Z,16.00
2019-05-11T20:35:32.334Z,15.97
2019-05-11T20:38:01.085Z,15.95
2019-05-11T20:40:32.108Z,16.06
2019-05-11T20:43:02.162Z,16.05
2019-05-11T20:45:32.266Z,16.00
2019-05-11T20:48:02.313Z,15.89
2019-05-11T20:50:32.380Z,15.77
2019-05-11T20:53:02.436Z,15.69
2019-05-11T20:55:32.550Z,15.63
2019-05-11T20:58:02.601Z,15.57
2019-05-11T21:00:32.685Z,15.54
2019-05-11T21:03:02.733Z,15.51
2019-05-11T21:05:32.749Z,15.54
2019-05-11T21:08:02.820Z,15.54
2019-05-11T21:10:32.857Z,15.51
2019-05-11T21:13:02.885Z,15.47
2019-05-11T21:15:32.944Z,15.39
2019-05-11T21:18:02.968Z,15.29
2019-05-11T21:20:33.020Z,15.08
2019-05-11T21:23:03.069Z,14.99
2019-05-11T21:25:33.110Z,14.89
2019-05-11T21:28:03.150Z,14.93
2019-05-11T21:30:33.196Z,14.92
2019-05-11T21:33:03.228Z,14.93
2019-05-11T21:35:33.345Z,14.82
2019-05-11T21:38:03.440Z,14.74
2019-05-11T21:40:33.483Z,14.64
2019-05-11T21:43:03.534Z,14.50
2019-05-11T21:45:33.618Z,14.35
2019-05-11T21:48:03.638Z,14.27
2019-05-11T21:50:33.726Z,14.20
2019-05-11T21:53:03.774Z,14.14
2019-05-11T21:55:33.831Z,14.13
2019-05-11T21:58:03.869Z,14.05
2019-05-11T22:00:33.995Z,14.00
2019-05-11T22:03:09.918Z,13.94
2019-05-11T22:05:38.130Z,13.85
2019-05-11T22:08:08.683Z,13.74
2019-05-11T22:10:38.798Z,13.65
2019-05-11T22:13:08.784Z,13.59
2019-05-11T22:15:38.833Z,13.54
2019-05-11T22:18:09.824Z,13.50
2019-05-11T22:20:41.012Z,13.45
2019-05-11T22:23:12.049Z,13.41
2019-05-11T22:25:42.116Z,13.32
2019-05-11T22:28:12.236Z,13.23
2019-05-11T22:30:42.289Z,13.13
2019-05-11T22:33:12.322Z,13.05
2019-05-11T22:35:42.380Z,13.01
2019-05-11T22:38:12.411Z,12.98
2019-05-11T22:40:42.495Z,12.95
2019-05-11T22:43:12.492Z,12.95
2019-05-11T22:45:42.535Z,12.91
2019-05-11T22:48:12.606Z,12.90
2019-05-11T22:50:43.789Z,12.89
2019-05-11T22:53:13.917Z,12.89
2019-05-11T22:55:43.946Z,12.94
2019-05-11T22:58:13.974Z,13.00
2019-05-11T23:00:44.347Z,13.01
2019-05-11T23:03:14.384Z,13.02
2019-05-11T23:05:44.435Z,12.94
2019-05-11T23:08:14.461Z,12.86
2019-05-11T23:10:44.503Z,12.81
2019-05-11T23:13:14.543Z,12.77
2019-05-11T23:15:44.577Z,12.76
2019-05-11T23:18:14.631Z,12.73
2019-05-11T23:20:44.654Z,12.69
2019-05-11T23:23:14.713Z,12.70
2019-05-11T23:25:44.722Z,12.75
2019-05-11T23:28:14.777Z,12.74
2019-05-11T23:30:44.798Z,12.70
2019-05-11T23:33:14.860Z,12.68
2019-05-11T23:35:44.884Z,12.66
2019-05-11T23:38:14.954Z,12.67
2019-05-11T23:40:44.980Z,12.71
2019-05-11T23:43:15.015Z,12.75
2019-05-11T23:45:45.031Z,12.78
2019-05-11T23:48:15.069Z,12.75
2019-05-11T23:50:45.286Z,12.73
2019-05-11T23:53:17.664Z,12.71
2019-05-11T23:55:48.393Z,12.70
2019-05-11T23:58:19.385Z,12.65
